PILOTS ONLINE: 353    ATC ONLINE: 49

Location

City Palm Springs
Country  United States
Latitude 33° 37' 36" N
Longitude 116° 9' 36" W
Elevation -115 ft
Type Medium Airport

Weather

METAR
2014/07/13 08:52
KTRM 130852Z AUTO 33008KT 10SM CLR 32/13 A2976 RMK AO2 SLP079 T03170133 58002 TSNO
TAF
2014/07/13 06:21
TAF KTRM 130520Z 1306/1406 32007KT P6SM SCT200 
     FM131000 VRB05KT P6SM SCT200 
     FM131800 14009KT P6SM SCT100 SCT200 
     FM140400 33007KT P6SM SCT150

Runways

12/30 4995 ft / 100 ft
17/35 8500 ft / 150 ft

Outbound flights

Inbound flights


Spotted incorrect airport information? Please login with your VATSIM ID.